WeatherOLA & Area Weather Station Summaries and History

Weather history for Indianola, Kingston, Poulsbo, Bainbridge Island, Silverdale other area weather stations. Select a station for detailed historical weather information of any date and time in five minute intervals. Great for looking up the timing of interesting weather events that are closest to you.

Station Historical Data
 
Daily Summary for November 17, 2018 Units:  English    Metric   Both
« Previous Day
Next Day »
Daily Weekly Monthly Yearly Custom
  Current: High: Low: Average:
Temperature: 6.1 °F TemperatureC °F 6.1 °F 6.8 °F
Dew Point: 5.0 °F DewpointC °F 4.9 °F 5.2 °F
Humidity: 93% Humidity% 87% 88%
Wind Speed: 0.0mph WindSpeedKMHmph 0.0mph 2.5mph
Wind Gust: 0.0mph WindSpeedGustKMHmph - -
WindCalm - - WNW
Pressure: 1025.7 in PressurehPa in 1024.6 in -
Precipitation: 0.0 in      
Historical Graphs
 
 
Tabular Data for November 17, 2018
Time Temperature Dew Point Pressure Wind Wind Speed Wind Gust Humidity Rainfall Rate (Hourly) solar Conditions
TemperatureC °F DewpointC °F PressurehPa in Calm     Humidity% HourlyPrecipMM in SoftwareType W/m2 Conditions
00:04 7.7 °F 6.0 °F 1024.6 in Calm     89% 0.0 in WeatherDisplay:10.37 W/m2 RA
00:10 7.6 °F 6.0 °F 1024.6 in North 5.6 mph   90% 0.0 in WeatherDisplay:10.37 W/m2 CLR
00:15 7.4 °F 5.9 °F 1024.7 in North 1.9 mph   90% 0.0 in WeatherDisplay:10.37 W/m2 CLR
00:19 7.3 °F 5.8 °F 1024.8 in Calm   0.5 mph 90% 0.0 in WeatherDisplay:10.37 W/m2 CLR
00:24 7.3 °F 5.7 °F 1024.7 in NNW 1.9 mph 0.5 mph 90% 0.0 in WeatherDisplay:10.37 W/m2 CLR
00:29 7.3 °F 5.7 °F 1024.8 in NNW 1.9 mph 0.2 mph 90% 0.0 in WeatherDisplay:10.37 W/m2 CLR
00:34 7.2 °F 5.7 °F 1024.8 in NNE 5.6 mph 0.2 mph 90% 0.0 in WeatherDisplay:10.37 W/m2 CLR
00:40 7.3 °F 5.8 °F 1024.8 in Calm     90% 0.0 in WeatherDisplay:10.37 W/m2 CLR
00:45 7.3 °F 5.7 °F 1024.8 in Calm     90% 0.0 in WeatherDisplay:10.37 W/m2 CLR
00:50 7.2 °F 5.6 °F 1024.8 in SSW 5.6 mph 0.8 mph 89% 0.0 in WeatherDisplay:10.37 W/m2 CLR
00:54 7.2 °F 5.6 °F 1024.8 in SSW 1.9 mph 0.5 mph 89% 0.0 in WeatherDisplay:10.37 W/m2 CLR
00:59 7.2 °F 5.6 °F 1024.8 in NW 3.7 mph 2.7 mph 89% 0.0 in WeatherDisplay:10.37 W/m2 CLR
01:04 7.2 °F 5.6 °F 1024.8 in Calm     89% 0.0 in WeatherDisplay:10.37 W/m2 CLR
01:09 7.2 °F 5.5 °F 1024.8 in NNW 1.6 mph 2.6 mph 89% 0.0 in WeatherDisplay:10.37 W/m2 CLR
01:14 7.2 °F 5.6 °F 1024.8 in NNW 1.9 mph 0.2 mph 89% 0.0 in WeatherDisplay:10.37 W/m2 CLR
01:19 7.2 °F 5.3 °F 1024.8 in NNE 3.7 mph 0.3 mph 88% 0.0 in WeatherDisplay:10.37 W/m2 CLR
01:25 7.2 °F 5.3 °F 1024.8 in NNE 1.6 mph   88% 0.0 in WeatherDisplay:10.37 W/m2 CLR
01:29 7.1 °F 5.3 °F 1024.8 in North 3.2 mph 0.3 mph 88% 0.0 in WeatherDisplay:10.37 W/m2 CLR
01:35 7.1 °F 5.1 °F 1024.9 in NNW 1.9 mph   87% 0.0 in WeatherDisplay:10.37 W/m2 CLR
01:40 7.1 °F 5.1 °F 1024.9 in NNW 5.6 mph 1.8 mph 87% 0.0 in WeatherDisplay:10.37 W/m2 CLR
01:44 7.1 °F 5.1 °F 1025.0 in NNW 4.8 mph 1.4 mph 87% 0.0 in WeatherDisplay:10.37 W/m2 CLR
01:49 7.2 °F 5.3 °F 1025.0 in NNW 1.9 mph 0.2 mph 88% 0.0 in WeatherDisplay:10.37 W/m2 CLR
01:54 7.2 °F 5.3 °F 1025.1 in Calm   0.2 mph 88% 0.0 in WeatherDisplay:10.37 W/m2 CLR
01:59 7.1 °F 5.2 °F 1025.2 in NNW 3.7 mph 1.4 mph 88% 0.0 in WeatherDisplay:10.37 W/m2 CLR
02:04 7.1 °F 5.1 °F 1025.2 in NNW 3.7 mph 2.7 mph 87% 0.0 in WeatherDisplay:10.37 W/m2 CLR
02:09 7.1 °F 5.1 °F 1025.1 in NNW 1.9 mph 0.8 mph 87% 0.0 in WeatherDisplay:10.37 W/m2 CLR
02:14 7.1 °F 5.1 °F 1025.2 in NNW 3.2 mph 2.6 mph 87% 0.0 in WeatherDisplay:10.37 W/m2 CLR
02:20 7.1 °F 5.3 °F 1025.1 in NNW 3.7 mph 1.0 mph 88% 0.0 in WeatherDisplay:10.37 W/m2 CLR
02:25 7.1 °F 5.3 °F 1025.1 in NNW 1.9 mph 0.5 mph 88% 0.0 in WeatherDisplay:10.37 W/m2 CLR
02:30 7.2 °F 5.3 °F 1025.2 in North 5.6 mph 0.5 mph 88% 0.0 in WeatherDisplay:10.37 W/m2 CLR
02:35 7.1 °F 5.3 °F 1025.2 in North 1.9 mph   88% 0.0 in WeatherDisplay:10.37 W/m2 CLR
02:39 7.1 °F 5.2 °F 1025.1 in North 1.9 mph 2.3 mph 88% 0.0 in WeatherDisplay:10.37 W/m2 CLR
02:44 7.2 °F 5.3 °F 1025.1 in North 9.3 mph   88% 0.0 in WeatherDisplay:10.37 W/m2 CLR
02:49 7.1 °F 5.4 °F 1025.1 in NNW 1.9 mph 0.2 mph 89% 0.0 in WeatherDisplay:10.37 W/m2 CLR
02:54 7.1 °F 5.4 °F 1025.1 in North 7.4 mph 0.8 mph 89% 0.0 in WeatherDisplay:10.37 W/m2 CLR
02:59 7.1 °F 5.4 °F 1025.1 in NW 5.6 mph 1.0 mph 89% 0.0 in WeatherDisplay:10.37 W/m2 CLR
03:04 7.1 °F 5.4 °F 1025.1 in NW 1.9 mph 1.1 mph 89% 0.0 in WeatherDisplay:10.37 W/m2 CLR
03:09 7.1 °F 5.4 °F 1025.1 in NW 3.2 mph 0.3 mph 89% 0.0 in WeatherDisplay:10.37 W/m2 CLR
03:14 7.0 °F 5.3 °F 1025.1 in NNW 5.6 mph 1.9 mph 89% 0.0 in WeatherDisplay:10.37 W/m2 CLR
03:20 7.0 °F 5.3 °F 1025.1 in NE 5.6 mph 1.6 mph 89% 0.0 in WeatherDisplay:10.37 W/m2 CLR
03:25 7.0 °F 5.4 °F 1025.1 in NE 1.9 mph   90% 0.0 in WeatherDisplay:10.37 W/m2 CLR
03:29 6.9 °F 5.4 °F 1025.1 in NNW 1.9 mph 0.2 mph 90% 0.0 in WeatherDisplay:10.37 W/m2 CLR
03:34 6.9 °F 5.4 °F 1025.1 in NNW 1.9 mph   90% 0.0 in WeatherDisplay:10.37 W/m2 CLR
03:39 6.9 °F 5.4 °F 1025.2 in NNW 1.9 mph   90% 0.0 in WeatherDisplay:10.37 W/m2 CLR
03:44 6.8 °F 5.3 °F 1025.1 in Calm   0.2 mph 90% 0.0 in WeatherDisplay:10.37 W/m2 CLR
03:50 6.8 °F 5.4 °F 1025.1 in NNW 1.9 mph   91% 0.0 in WeatherDisplay:10.37 W/m2 CLR
03:55 6.7 °F 5.3 °F 1025.1 in NW 3.7 mph   91% 0.0 in WeatherDisplay:10.37 W/m2 CLR
03:59 6.6 °F 5.2 °F 1025.2 in NNW 13.0 mph 0.2 mph 91% 0.0 in WeatherDisplay:10.37 W/m2 CLR
04:04 6.7 °F 5.3 °F 1025.1 in North 3.7 mph 0.2 mph 91% 0.0 in WeatherDisplay:10.37 W/m2 CLR
04:10 6.6 °F 5.2 °F 1025.1 in North 3.7 mph 0.5 mph 91% 0.0 in WeatherDisplay:10.37 W/m2 CLR
04:15 6.6 °F 5.2 °F 1025.1 in Calm     91% 0.0 in WeatherDisplay:10.37 W/m2 CLR
04:19 6.6 °F 5.2 °F 1025.2 in NNW 1.9 mph   91% 0.0 in WeatherDisplay:10.37 W/m2 CLR
04:24 6.6 °F 5.2 °F 1025.2 in WNW 1.9 mph 0.2 mph 91% 0.0 in WeatherDisplay:10.37 W/m2 CLR
04:29 6.6 °F 5.2 °F 1025.2 in WNW 3.7 mph 0.2 mph 91% 0.0 in WeatherDisplay:10.37 W/m2 CLR
04:34 6.5 °F 5.1 °F 1025.3 in WNW 1.9 mph 0.2 mph 91% 0.0 in WeatherDisplay:10.37 W/m2 CLR
04:39 6.4 °F 5.1 °F 1025.2 in WNW 1.9 mph   91% 0.0 in WeatherDisplay:10.37 W/m2 CLR
04:44 6.4 °F 5.1 °F 1025.2 in Calm     91% 0.0 in WeatherDisplay:10.37 W/m2 CLR
04:49 6.4 °F 5.1 °F 1025.3 in WNW 1.9 mph   91% 0.0 in WeatherDisplay:10.37 W/m2 CLR
04:54 6.4 °F 5.1 °F 1025.2 in NNW 5.6 mph 0.3 mph 91% 0.0 in WeatherDisplay:10.37 W/m2 CLR
04:59 6.5 °F 5.1 °F 1025.3 in NNW 1.9 mph 0.2 mph 91% 0.0 in WeatherDisplay:10.37 W/m2 CLR
05:04 6.4 °F 5.1 °F 1025.4 in NNW 1.9 mph 0.2 mph 91% 0.0 in WeatherDisplay:10.37 W/m2 CLR
05:09 6.4 °F 5.1 °F 1025.4 in Calm     91% 0.0 in WeatherDisplay:10.37 W/m2 CLR
05:14 6.3 °F 4.9 °F 1025.5 in Calm     91% 0.0 in WeatherDisplay:10.37 W/m2 CLR
05:20 6.3 °F 5.1 °F 1025.5 in Calm     92% 0.0 in WeatherDisplay:10.37 W/m2 CLR
05:25 6.3 °F 5.1 °F 1025.5 in Calm     92% 0.0 in WeatherDisplay:10.37 W/m2 CLR
05:29 6.3 °F 5.1 °F 1025.5 in NNW 1.9 mph   92% 0.0 in WeatherDisplay:10.37 W/m2 CLR
05:34 6.2 °F 5.0 °F 1025.6 in Calm     92% 0.0 in WeatherDisplay:10.37 W/m2 CLR
05:39 6.2 °F 4.9 °F 1025.6 in Calm     92% 0.0 in WeatherDisplay:10.37 W/m2 CLR
05:44 6.2 °F 4.9 °F 1025.6 in Calm     92% 0.0 in WeatherDisplay:10.37 W/m2 CLR
05:49 6.1 °F 5.0 °F 1025.7 in Calm     93% 0.0 in WeatherDisplay:10.37 W/m2 CLR
Indianola, WA, USA
Compliments of Weather Underground - 1.25 mb